Time;durP1;ratioP1;P1;durP2;ratioP2;P2;SDS_P1;SDS_P2;PMS_P1;PMS_P2;Temp;Humidity;BMP_temperature;BMP_pressure;BME280_temperature;BME280_humidity;BME280_pressure;Samples;Min_cycle;Max_cycle;Signal;HPM_P1;HPM_P2
2024/03/24 00:01:05;;;;;;;8.80;5.60;;;;;;;4.23;100.00;97979.98;109524;1251;60166;-73
2024/03/24 00:03:52;;;;;;;8.20;5.40;;;;;;;4.23;100.00;97971.88;109460;1251;59875;-74
2024/03/24 00:06:18;;;;;;;8.50;6.60;;;;;;;4.22;100.00;97969.09;109554;1251;59913;-74
2024/03/24 00:08:45;;;;;;;7.50;6.10;;;;;;;4.23;100.00;97962.92;109493;1251;66970;-74
2024/03/24 00:11:11;;;;;;;8.80;5.90;;;;;;;4.22;100.00;97949.60;109488;1251;59998;-75
2024/03/24 00:13:37;;;;;;;9.80;6.40;;;;;;;4.22;100.00;97928.30;109484;1251;60165;-75
2024/03/24 00:16:04;;;;;;;13.00;6.80;;;;;;;4.23;100.00;97913.52;109529;1251;59790;-74
2024/03/24 00:18:32;;;;;;;8.20;6.30;;;;;;;4.24;100.00;97906.59;109514;1251;59841;-74
2024/03/24 00:20:58;;;;;;;10.80;6.60;;;;;;;4.26;100.00;97899.60;109478;1251;66554;-73
2024/03/24 00:23:24;;;;;;;9.70;7.30;;;;;;;4.27;100.00;97889.01;109556;1251;59998;-74
2024/03/24 00:25:51;;;;;;;8.70;6.90;;;;;;;4.27;100.00;97885.30;109532;1251;60197;-73
2024/03/24 00:28:17;;;;;;;11.90;7.20;;;;;;;4.27;100.00;97893.22;109513;1251;59721;-74
2024/03/24 00:30:43;;;;;;;10.90;7.50;;;;;;;4.26;100.00;97899.25;109506;1251;59943;-74
2024/03/24 00:33:09;;;;;;;11.80;7.80;;;;;;;4.24;100.00;97897.46;109559;1251;59797;-74
2024/03/24 00:35:36;;;;;;;12.50;10.60;;;;;;;4.19;100.00;97881.73;109504;1251;59797;-74
2024/03/24 00:38:03;;;;;;;12.80;9.50;;;;;;;4.18;100.00;97888.45;109330;1251;59889;-75
2024/03/24 00:40:29;;;;;;;14.50;11.10;;;;;;;4.16;100.00;97893.67;109480;1251;60088;-74
2024/03/24 00:42:55;;;;;;;15.30;12.60;;;;;;;4.13;100.00;97897.02;109545;1251;60032;-74
2024/03/24 00:45:22;;;;;;;17.50;14.10;;;;;;;4.09;100.00;97900.09;109421;1251;60149;-74
2024/03/24 00:47:51;;;;;;;16.80;13.20;;;;;;;4.05;100.00;97887.46;109612;1250;59835;-75
2024/03/24 00:50:18;;;;;;;17.30;13.50;;;;;;;4.01;100.00;97871.54;109626;1250;64107;-75
2024/03/24 00:52:44;;;;;;;15.60;12.20;;;;;;;3.98;100.00;97860.66;109624;1250;59782;-74
2024/03/24 00:55:11;;;;;;;15.00;10.90;;;;;;;3.94;100.00;97863.65;109594;1250;59847;-74
2024/03/24 00:57:37;;;;;;;17.40;11.90;;;;;;;3.91;100.00;97854.88;109603;1250;60479;-74
2024/03/24 01:00:04;;;;;;;16.80;10.60;;;;;;;3.87;100.00;97845.98;109626;1250;59901;-73
2024/03/24 01:02:30;;;;;;;12.50;9.90;;;;;;;3.83;100.00;97835.54;109137;1250;63070;-74
2024/03/24 01:04:58;;;;;;;13.00;10.90;;;;;;;3.77;100.00;97840.77;109591;1250;59768;-75
2024/03/24 01:07:24;;;;;;;16.40;12.40;;;;;;;3.71;100.00;97856.39;109647;1250;59800;-73
2024/03/24 01:09:52;;;;;;;16.80;12.70;;;;;;;3.63;100.00;97859.13;109430;1250;60152;-74
2024/03/24 01:12:19;;;;;;;17.60;11.80;;;;;;;3.54;100.00;97856.46;109331;1250;66413;-74
2024/03/24 01:14:45;;;;;;;16.60;12.20;;;;;;;3.45;100.00;97847.70;109596;1250;60424;-74
2024/03/24 01:17:12;;;;;;;21.50;14.30;;;;;;;3.39;100.00;97848.75;109615;1251;60031;-74
2024/03/24 01:19:38;;;;;;;21.10;15.10;;;;;;;3.36;100.00;97850.83;109408;1250;59841;-74
2024/03/24 01:22:05;;;;;;;21.40;14.80;;;;;;;3.36;100.00;97849.27;109601;1251;59854;-74
2024/03/24 01:24:32;;;;;;;22.30;17.10;;;;;;;3.37;100.00;97848.48;109622;1250;59767;-75
2024/03/24 01:26:58;;;;;;;22.60;16.10;;;;;;;3.39;100.00;97850.14;109343;1254;64107;-75
2024/03/24 01:29:24;;;;;;;19.70;16.90;;;;;;;3.41;100.00;97852.33;109605;1250;59723;-75
2024/03/24 01:31:51;;;;;;;23.60;18.50;;;;;;;3.45;100.00;97863.65;109584;1250;59810;-74
2024/03/24 01:34:17;;;;;;;24.70;19.10;;;;;;;3.52;100.00;97866.98;109640;1250;60214;-74
2024/03/24 01:36:43;;;;;;;21.50;17.60;;;;;;;3.57;100.00;97867.20;108872;1250;1002818;-74
2024/03/24 01:39:10;;;;;;;22.30;17.40;;;;;;;3.62;100.00;97863.96;109581;1250;59848;-74
2024/03/24 01:41:36;;;;;;;22.50;16.90;;;;;;;3.66;100.00;97861.61;109621;1250;59800;-74
2024/03/24 01:44:02;;;;;;;21.90;16.60;;;;;;;3.71;100.00;97865.88;109662;1250;59853;-74
2024/03/24 01:46:29;;;;;;;23.70;17.30;;;;;;;3.77;100.00;97856.98;109593;1250;59793;-74
2024/03/24 01:48:55;;;;;;;25.10;19.00;;;;;;;3.82;100.00;97853.52;108930;1250;1002307;-73
2024/03/24 01:51:22;;;;;;;22.10;18.50;;;;;;;3.85;100.00;97851.39;109631;1250;59812;-75
2024/03/24 01:53:50;;;;;;;23.90;17.50;;;;;;;3.85;100.00;97854.20;109596;1250;59859;-74
2024/03/24 01:56:17;;;;;;;21.00;16.60;;;;;;;3.85;100.00;97858.44;109575;1250;59786;-74
2024/03/24 01:58:44;;;;;;;23.50;18.50;;;;;;;3.84;100.00;97858.62;109636;1250;66777;-74
2024/03/24 02:01:11;;;;;;;25.20;19.10;;;;;;;3.84;100.00;97862.67;109647;1250;60139;-74
2024/03/24 02:03:38;;;;;;;23.90;18.90;;;;;;;3.85;100.00;97870.90;109593;1250;64200;-74
2024/03/24 02:06:04;;;;;;;26.70;21.70;;;;;;;3.83;100.00;97874.48;109609;1250;59777;-74
2024/03/24 02:08:32;;;;;;;33.30;25.30;;;;;;;3.81;100.00;97874.45;109475;1250;59790;-74
2024/03/24 02:10:59;;;;;;;35.30;25.40;;;;;;;3.79;100.00;97869.31;109587;1251;67076;-75
2024/03/24 02:13:26;;;;;;;31.80;24.50;;;;;;;3.78;100.00;97871.27;109600;1250;60209;-74
2024/03/24 02:15:54;;;;;;;32.90;25.20;;;;;;;3.77;100.00;97866.98;109589;1250;65008;-73
2024/03/24 02:18:23;;;;;;;33.00;24.00;;;;;;;3.75;100.00;97863.91;109602;1250;59782;-75
2024/03/24 02:20:50;;;;;;;27.80;22.40;;;;;;;3.73;100.00;97866.80;109592;1250;59675;-73
2024/03/24 02:23:16;;;;;;;27.00;22.70;;;;;;;3.72;100.00;97867.95;109619;1250;66539;-73
2024/03/24 02:25:43;;;;;;;27.90;22.10;;;;;;;3.71;100.00;97869.04;109623;1250;60872;-74
2024/03/24 02:28:09;;;;;;;33.00;25.60;;;;;;;3.68;100.00;97867.64;109422;1250;59961;-75
2024/03/24 02:30:35;;;;;;;34.30;27.60;;;;;;;3.62;100.00;97863.40;109630;1250;60014;-74
2024/03/24 02:33:02;;;;;;;36.00;30.90;;;;;;;3.56;100.00;97863.23;109595;1250;60170;-74
2024/03/24 02:35:28;;;;;;;38.80;31.80;;;;;;;3.51;100.00;97864.04;109400;1250;59939;-74
2024/03/24 02:37:55;;;;;;;33.50;28.70;;;;;;;3.44;100.00;97864.42;109638;1250;59727;-74
2024/03/24 02:40:21;;;;;;;29.60;24.10;;;;;;;3.38;100.00;97859.49;109623;1250;59855;-74
2024/03/24 02:42:47;;;;;;;25.80;22.90;;;;;;;3.33;100.00;97864.19;109549;1250;59856;-74
2024/03/24 02:45:14;;;;;;;27.50;21.10;;;;;;;3.29;100.00;97867.21;109599;1250;59829;-74
2024/03/24 02:47:40;;;;;;;27.90;22.80;;;;;;;3.27;100.00;97865.17;109602;1250;59826;-74
2024/03/24 02:50:08;;;;;;;30.10;23.70;;;;;;;3.29;100.00;97864.55;109633;1250;59866;-73
2024/03/24 02:52:35;;;;;;;27.60;23.30;;;;;;;3.31;100.00;97852.53;109628;1250;64034;-74
2024/03/24 02:55:01;;;;;;;27.80;23.50;;;;;;;3.32;100.00;97852.15;109577;1250;59779;-75
2024/03/24 02:57:28;;;;;;;29.10;25.50;;;;;;;3.30;100.00;97847.51;109616;1250;59830;-73
2024/03/24 02:59:54;;;;;;;35.40;31.20;;;;;;;3.27;100.00;97844.99;109584;1251;66858;-74
2024/03/24 03:02:20;;;;;;;40.20;34.60;;;;;;;3.25;100.00;97849.51;109620;1250;59781;-74
2024/03/24 03:04:47;;;;;;;40.80;34.20;;;;;;;3.22;100.00;97850.75;109542;1250;59830;-74
2024/03/24 03:07:13;;;;;;;37.50;33.50;;;;;;;3.18;100.00;97851.33;109601;1250;59816;-75
2024/03/24 03:09:40;;;;;;;38.00;33.60;;;;;;;3.12;100.00;97852.67;109655;1250;59863;-74
2024/03/24 03:12:06;;;;;;;35.80;30.90;;;;;;;3.09;100.00;97851.83;109601;1250;59898;-74
2024/03/24 03:14:32;;;;;;;35.80;31.90;;;;;;;3.05;100.00;97854.84;109578;1250;59887;-74
2024/03/24 03:16:59;;;;;;;33.60;29.80;;;;;;;3.02;100.00;97858.14;109579;1252;60196;-74
2024/03/24 03:19:25;;;;;;;35.30;29.80;;;;;;;3.00;100.00;97856.15;109618;1250;59822;-74
2024/03/24 03:21:52;;;;;;;34.80;29.50;;;;;;;2.98;100.00;97857.66;109597;1250;59816;-74
2024/03/24 03:24:19;;;;;;;32.10;27.30;;;;;;;2.95;100.00;97857.13;109585;1250;59779;-74
2024/03/24 03:26:45;;;;;;;38.00;30.00;;;;;;;2.92;100.00;97853.44;109652;1249;59876;-74
2024/03/24 03:29:11;;;;;;;37.10;30.00;;;;;;;2.88;100.00;97847.15;109649;1250;59955;-75
2024/03/24 03:31:38;;;;;;;35.70;29.30;;;;;;;2.86;100.00;97845.70;109601;1250;59850;-75
2024/03/24 03:34:04;;;;;;;34.60;29.00;;;;;;;2.83;100.00;97844.63;109346;1250;59925;-74
2024/03/24 03:36:30;;;;;;;34.20;28.80;;;;;;;2.82;100.00;97845.92;109578;1250;59845;-74
2024/03/24 03:38:57;;;;;;;35.60;28.80;;;;;;;2.81;100.00;97845.63;109621;1250;59812;-74
2024/03/24 03:41:23;;;;;;;36.20;29.50;;;;;;;2.83;100.00;97846.73;109588;1250;59885;-74
2024/03/24 03:43:49;;;;;;;39.10;30.10;;;;;;;2.86;100.00;97844.80;109623;1250;59736;-74
2024/03/24 03:46:16;;;;;;;41.80;34.10;;;;;;;2.91;100.00;97841.40;109608;1251;59839;-74
2024/03/24 03:48:43;;;;;;;44.80;36.80;;;;;;;2.95;100.00;97838.02;109574;1250;60203;-75
2024/03/24 03:51:29;;;;;;;46.70;36.80;;;;;;;3.00;100.00;97835.11;109636;1250;59859;-75
2024/03/24 03:53:58;;;;;;;42.30;34.40;;;;;;;3.05;100.00;97832.73;109564;1250;64051;-74
2024/03/24 03:56:24;;;;;;;48.40;37.80;;;;;;;3.08;100.00;97830.78;109580;1250;59893;-74
2024/03/24 03:58:51;;;;;;;45.60;37.90;;;;;;;3.12;100.00;97830.25;109606;1251;59708;-74
2024/03/24 04:01:17;;;;;;;44.80;39.40;;;;;;;3.13;100.00;97831.41;109639;1250;60112;-74
2024/03/24 04:03:43;;;;;;;47.90;40.80;;;;;;;3.14;100.00;97828.38;109639;1250;60101;-75
2024/03/24 04:06:10;;;;;;;44.60;39.20;;;;;;;3.15;100.00;97820.39;109582;1250;59858;-73
2024/03/24 04:08:37;;;;;;;39.50;35.30;;;;;;;3.18;100.00;97817.80;109591;1250;60079;-74
2024/03/24 04:11:04;;;;;;;33.30;26.20;;;;;;;3.20;100.00;97815.37;109605;1250;60204;-76
2024/03/24 04:13:30;;;;;;;27.60;23.20;;;;;;;3.24;100.00;97808.88;109351;1250;59758;-74
2024/03/24 04:15:56;;;;;;;25.80;21.30;;;;;;;3.26;100.00;97802.91;109653;1250;60015;-74
2024/03/24 04:18:23;;;;;;;24.30;20.00;;;;;;;3.30;100.00;97794.98;109611;1250;59854;-74
2024/03/24 04:20:49;;;;;;;22.80;19.60;;;;;;;3.33;100.00;97792.89;109575;1250;60106;-74
2024/03/24 04:23:15;;;;;;;20.70;17.00;;;;;;;3.36;100.00;97804.29;109624;1250;59824;-74
2024/03/24 04:25:42;;;;;;;18.60;14.80;;;;;;;3.39;100.00;97808.89;109649;1250;59858;-74
2024/03/24 04:28:08;;;;;;;18.10;14.00;;;;;;;3.42;100.00;97809.57;109662;1250;59736;-74
2024/03/24 04:30:34;;;;;;;16.60;13.40;;;;;;;3.48;100.00;97816.63;109596;1250;59713;-76
2024/03/24 04:33:01;;;;;;;14.40;12.30;;;;;;;3.51;100.00;97813.98;109564;1250;60097;-74
2024/03/24 04:35:28;;;;;;;14.80;12.60;;;;;;;3.55;100.00;97815.53;109640;1250;59906;-73
2024/03/24 04:37:54;;;;;;;15.10;11.50;;;;;;;3.59;100.00;97822.34;109648;1250;59812;-74
2024/03/24 04:40:20;;;;;;;13.00;11.40;;;;;;;3.62;100.00;97819.13;109670;1250;60029;-74
2024/03/24 04:42:47;;;;;;;14.70;10.90;;;;;;;3.65;100.00;97822.83;109537;1250;59907;-74
2024/03/24 04:45:13;;;;;;;13.60;10.60;;;;;;;3.68;100.00;97827.96;109573;1254;59788;-74
2024/03/24 04:47:39;;;;;;;11.50;9.70;;;;;;;3.70;100.00;97823.08;109623;1250;59868;-75
2024/03/24 04:50:06;;;;;;;12.50;9.20;;;;;;;3.72;100.00;97819.98;109624;1249;59758;-74
2024/03/24 04:52:33;;;;;;;16.20;11.00;;;;;;;3.74;100.00;97811.08;108892;1250;1002951;-74
2024/03/24 04:54:59;;;;;;;11.20;8.20;;;;;;;3.75;100.00;97804.85;109548;1254;59862;-74
2024/03/24 04:57:25;;;;;;;11.80;9.80;;;;;;;3.74;100.00;97809.14;109646;1250;59789;-74
2024/03/24 04:59:52;;;;;;;13.40;9.40;;;;;;;3.73;100.00;97814.48;109642;1250;59875;-74
2024/03/24 05:02:18;;;;;;;11.60;10.10;;;;;;;3.72;100.00;97814.69;109669;1250;60179;-74
2024/03/24 05:04:44;;;;;;;11.90;9.70;;;;;;;3.73;100.00;97809.34;109640;1250;59798;-74
2024/03/24 05:07:11;;;;;;;13.30;10.10;;;;;;;3.80;100.00;97812.66;109619;1250;59771;-75
2024/03/24 05:09:37;;;;;;;13.10;9.50;;;;;;;3.88;100.00;97810.63;109611;1250;59766;-75
2024/03/24 05:12:04;;;;;;;12.00;9.60;;;;;;;3.96;100.00;97807.86;109670;1250;59721;-74
2024/03/24 05:14:30;;;;;;;11.90;9.50;;;;;;;4.03;100.00;97810.79;109673;1250;59786;-74
2024/03/24 05:16:56;;;;;;;11.50;8.80;;;;;;;4.10;100.00;97813.20;109653;1250;59898;-75
2024/03/24 05:19:23;;;;;;;11.10;9.20;;;;;;;4.16;100.00;97816.52;109665;1250;59837;-75
2024/03/24 05:21:49;;;;;;;11.40;9.10;;;;;;;4.20;100.00;97815.59;109618;1250;59719;-75
2024/03/24 05:24:16;;;;;;;12.80;10.40;;;;;;;4.21;100.00;97813.76;109653;1250;59747;-74
2024/03/24 05:26:42;;;;;;;11.80;9.80;;;;;;;4.22;100.00;97813.16;109630;1250;60079;-74
2024/03/24 05:29:08;;;;;;;12.50;8.60;;;;;;;4.23;100.00;97813.45;109628;1250;59803;-75
2024/03/24 05:31:35;;;;;;;13.50;8.40;;;;;;;4.25;100.00;97818.44;109572;1250;59955;-73
2024/03/24 05:34:01;;;;;;;10.30;9.00;;;;;;;4.27;100.00;97818.52;109621;1250;59830;-74
2024/03/24 05:36:28;;;;;;;10.40;8.40;;;;;;;4.27;100.00;97819.54;109691;1250;59815;-75
2024/03/24 05:38:54;;;;;;;11.80;8.40;;;;;;;4.28;100.00;97820.69;108834;1250;1002219;-74
2024/03/24 05:41:21;;;;;;;15.00;11.50;;;;;;;4.30;100.00;97822.35;109642;1250;59875;-74
2024/03/24 05:43:47;;;;;;;10.40;8.20;;;;;;;4.30;100.00;97821.80;109605;1250;59866;-74
2024/03/24 05:46:13;;;;;;;12.00;8.70;;;;;;;4.31;100.00;97826.89;109620;1250;59724;-74
2024/03/24 05:48:40;;;;;;;8.90;7.10;;;;;;;4.31;100.00;97831.08;109665;1250;59869;-74
2024/03/24 05:51:06;;;;;;;11.40;8.00;;;;;;;4.32;100.00;97832.45;109614;1250;59898;-73
2024/03/24 05:53:33;;;;;;;10.10;8.00;;;;;;;4.32;100.00;97831.04;109680;1250;59976;-73
2024/03/24 05:56:00;;;;;;;9.40;8.00;;;;;;;4.32;100.00;97824.20;109583;1250;60101;-74
2024/03/24 05:58:27;;;;;;;10.80;7.50;;;;;;;4.31;100.00;97823.88;109517;1250;59914;-73
2024/03/24 06:00:55;;;;;;;8.90;7.60;;;;;;;4.31;100.00;97825.25;109572;1250;67252;-74
2024/03/24 06:03:22;;;;;;;10.60;7.30;;;;;;;4.34;100.00;97824.75;109647;1250;60138;-75
2024/03/24 06:05:48;;;;;;;7.40;6.60;;;;;;;4.38;100.00;97823.95;109679;1250;62779;-74
2024/03/24 06:08:14;;;;;;;8.60;7.20;;;;;;;4.43;100.00;97822.95;109618;1250;59824;-74
2024/03/24 06:10:44;;;;;;;8.20;6.20;;;;;;;4.47;100.00;97824.12;109499;1250;59751;-75
2024/03/24 06:13:11;;;;;;;8.00;7.10;;;;;;;4.50;100.00;97828.02;109287;1250;68057;-74
2024/03/24 06:15:39;;;;;;;8.00;6.60;;;;;;;4.50;100.00;97827.48;109605;1250;59757;-74
2024/03/24 06:18:06;;;;;;;7.10;6.30;;;;;;;4.49;100.00;97834.92;109623;1250;64132;-74
2024/03/24 06:20:33;;;;;;;7.20;6.40;;;;;;;4.45;100.00;97837.27;109597;1250;59801;-74
2024/03/24 06:23:03;;;;;;;9.00;6.70;;;;;;;4.44;100.00;97841.08;109673;1250;59831;-74
2024/03/24 06:25:30;;;;;;;9.10;8.10;;;;;;;4.45;100.00;97844.11;109308;1250;75683;-76
2024/03/24 06:27:56;;;;;;;10.60;8.00;;;;;;;4.48;100.00;97843.59;109609;1250;59894;-75
2024/03/24 06:30:23;;;;;;;9.50;8.20;;;;;;;4.52;100.00;97849.89;109605;1250;59813;-74
2024/03/24 06:32:50;;;;;;;13.10;9.40;;;;;;;4.54;100.00;97849.55;109627;1251;59900;-74
2024/03/24 06:35:17;;;;;;;12.20;9.00;;;;;;;4.55;100.00;97853.90;109644;1250;59689;-74
2024/03/24 06:37:44;;;;;;;10.70;8.00;;;;;;;4.56;100.00;97854.55;109462;1250;67497;-75
2024/03/24 06:40:11;;;;;;;10.80;8.60;;;;;;;4.54;100.00;97853.05;109618;1250;61391;-75
2024/03/24 06:42:48;;;;;;;10.50;8.40;;;;;;;4.52;100.00;97855.69;109652;1250;63769;-74
2024/03/24 06:45:15;;;;;;;12.00;7.50;;;;;;;4.49;100.00;97858.81;109635;1251;59824;-75
2024/03/24 06:47:41;;;;;;;9.20;8.20;;;;;;;4.49;100.00;97859.19;109648;1250;59808;-74
2024/03/24 06:50:08;;;;;;;7.70;6.60;;;;;;;4.51;100.00;97859.40;109656;1250;59841;-74
2024/03/24 06:52:34;;;;;;;10.20;7.50;;;;;;;4.54;100.00;97854.83;109616;1250;59873;-75
2024/03/24 06:55:02;;;;;;;9.70;8.60;;;;;;;4.59;100.00;97865.45;109602;1250;62489;-74
2024/03/24 06:57:28;;;;;;;11.80;8.30;;;;;;;4.60;100.00;97869.95;109620;1250;59837;-73
2024/03/24 06:59:55;;;;;;;13.40;10.10;;;;;;;4.59;100.00;97871.04;109496;1255;59819;-73
2024/03/24 07:02:22;;;;;;;13.00;11.50;;;;;;;4.56;100.00;97871.06;109643;1250;66562;-75
2024/03/24 07:04:48;;;;;;;12.60;9.20;;;;;;;4.50;100.00;97876.52;109622;1250;59804;-74
2024/03/24 07:07:14;;;;;;;12.00;9.80;;;;;;;4.45;100.00;97876.67;109639;1250;59868;-73
2024/03/24 07:09:41;;;;;;;10.50;8.30;;;;;;;4.47;100.00;97871.45;109600;1250;59809;-76
2024/03/24 07:12:07;;;;;;;10.50;8.70;;;;;;;4.55;100.00;97869.89;109681;1250;59718;-75
2024/03/24 07:14:34;;;;;;;10.20;8.50;;;;;;;4.63;100.00;97872.08;109654;1250;60316;-75
2024/03/24 07:17:00;;;;;;;14.40;9.10;;;;;;;4.66;100.00;97874.16;109311;1250;59910;-74
2024/03/24 07:19:26;;;;;;;10.70;8.60;;;;;;;4.66;100.00;97873.29;109608;1250;59901;-74
2024/03/24 07:21:53;;;;;;;9.60;8.40;;;;;;;4.66;100.00;97875.58;109610;1250;59850;-74
2024/03/24 07:24:19;;;;;;;8.80;7.80;;;;;;;4.67;100.00;97879.77;109562;1250;59793;-76
2024/03/24 07:26:45;;;;;;;9.10;8.00;;;;;;;4.66;100.00;97877.16;109628;1250;59860;-74
2024/03/24 07:29:12;;;;;;;9.50;8.20;;;;;;;4.62;100.00;97874.08;109648;1250;59734;-78
2024/03/24 07:31:38;;;;;;;8.90;7.60;;;;;;;4.60;100.00;97876.66;109647;1250;59781;-74
2024/03/24 07:34:04;;;;;;;9.20;8.30;;;;;;;4.59;100.00;97881.27;109625;1250;59815;-74
2024/03/24 07:36:31;;;;;;;11.10;8.20;;;;;;;4.52;100.00;97878.91;109655;1250;59829;-75
2024/03/24 07:38:57;;;;;;;9.10;8.20;;;;;;;4.39;100.00;97875.10;109685;1250;59879;-74
2024/03/24 07:41:23;;;;;;;10.50;8.30;;;;;;;4.30;100.00;97877.37;109549;1251;59811;-75
2024/03/24 07:43:50;;;;;;;11.50;8.90;;;;;;;4.20;100.00;97874.64;109502;1251;59949;-74
2024/03/24 07:46:16;;;;;;;13.80;10.00;;;;;;;4.14;100.00;97876.92;109428;1251;59841;-75
2024/03/24 07:48:42;;;;;;;10.40;9.40;;;;;;;4.08;100.00;97887.48;109535;1253;59861;-75
2024/03/24 07:51:09;;;;;;;11.30;10.20;;;;;;;3.97;100.00;97890.91;109504;1251;59823;-74
2024/03/24 07:53:36;;;;;;;10.20;8.70;;;;;;;3.84;100.00;97891.70;109039;1254;59956;-74
2024/03/24 07:56:02;;;;;;;10.40;7.80;;;;;;;3.73;100.00;97886.66;109249;1254;59848;-75
2024/03/24 07:58:28;;;;;;;9.30;8.30;;;;;;;3.66;100.00;97880.06;109240;1254;60196;-73
2024/03/24 08:00:55;;;;;;;9.90;8.70;;;;;;;3.56;100.00;97882.91;108532;1254;1002126;-73
2024/03/24 08:03:21;;;;;;;13.00;10.10;;;;;;;3.49;100.00;97880.61;109240;1256;59794;-74
2024/03/24 08:05:47;;;;;;;11.20;10.10;;;;;;;3.46;100.00;97886.62;109247;1254;59868;-73
2024/03/24 08:08:14;;;;;;;13.70;11.00;;;;;;;3.39;100.00;97892.45;109199;1255;60038;-74
2024/03/24 08:10:40;;;;;;;11.60;10.40;;;;;;;3.34;100.00;97901.18;109226;1254;59792;-74
2024/03/24 08:13:06;;;;;;;11.30;10.10;;;;;;;3.26;100.00;97907.20;109223;1255;59928;-74
2024/03/24 08:15:32;;;;;;;10.70;9.70;;;;;;;3.17;100.00;97911.73;109213;1254;60285;-73
2024/03/24 08:17:59;;;;;;;11.50;10.10;;;;;;;3.09;100.00;97914.27;109229;1255;59871;-73
2024/03/24 08:20:27;;;;;;;15.60;12.30;;;;;;;3.02;100.00;97917.26;109172;1254;60201;-73
2024/03/24 08:22:54;;;;;;;12.70;11.20;;;;;;;2.94;100.00;97922.09;109310;1254;59916;-73
2024/03/24 08:25:21;;;;;;;9.00;8.10;;;;;;;2.75;100.00;97928.92;109464;1251;66960;-74
2024/03/24 08:27:47;;;;;;;10.30;9.30;;;;;;;2.53;100.00;97941.42;109526;1251;59824;-73
2024/03/24 08:30:14;;;;;;;11.20;10.20;;;;;;;2.31;100.00;97947.99;109569;1251;60006;-73
2024/03/24 08:32:40;;;;;;;11.40;10.30;;;;;;;2.12;100.00;97953.16;108729;1251;1002359;-74
2024/03/24 08:35:07;;;;;;;10.00;9.00;;;;;;;1.92;100.00;97953.23;109524;1251;59803;-73
2024/03/24 08:37:33;;;;;;;10.20;9.20;;;;;;;1.77;100.00;97955.70;109557;1251;59877;-72
2024/03/24 08:39:59;;;;;;;10.30;8.30;;;;;;;1.67;100.00;97953.74;109550;1251;59750;-72
2024/03/24 08:42:26;;;;;;;15.20;11.30;;;;;;;1.62;100.00;97949.27;109502;1251;59824;-71
2024/03/24 08:44:52;;;;;;;11.10;8.60;;;;;;;1.58;100.00;97942.11;109502;1253;59878;-70
2024/03/24 08:47:19;;;;;;;9.50;7.70;;;;;;;1.54;100.00;97932.98;109537;1251;59802;-71
2024/03/24 08:49:45;;;;;;;12.30;9.70;;;;;;;1.56;100.00;97932.02;109501;1255;59829;-72
2024/03/24 08:52:11;;;;;;;18.70;12.30;;;;;;;1.62;100.00;97934.73;109569;1251;59852;-71
2024/03/24 08:54:38;;;;;;;12.00;9.30;;;;;;;1.69;100.00;97936.30;109545;1251;60270;-70
2024/03/24 08:57:04;;;;;;;15.50;11.50;;;;;;;1.77;100.00;97936.31;109550;1251;60096;-71
2024/03/24 08:59:31;;;;;;;23.90;16.00;;;;;;;1.86;100.00;97931.13;109481;1251;59825;-70
2024/03/24 09:01:57;;;;;;;18.00;14.90;;;;;;;1.95;100.00;97925.23;109506;1251;59900;-70
2024/03/24 09:04:23;;;;;;;15.10;12.60;;;;;;;2.11;100.00;97926.21;109526;1251;60240;-70
2024/03/24 09:06:50;;;;;;;13.50;11.90;;;;;;;2.28;100.00;97925.67;109506;1251;59933;-70
2024/03/24 09:09:16;;;;;;;13.30;11.70;;;;;;;2.52;100.00;97923.09;109506;1251;60801;-71
2024/03/24 09:11:42;;;;;;;19.20;16.10;;;;;;;2.73;100.00;97923.05;109514;1251;59823;-70
2024/03/24 09:14:09;;;;;;;17.20;15.40;;;;;;;2.82;100.00;97922.36;109492;1251;60156;-71
2024/03/24 09:16:35;;;;;;;12.60;11.30;;;;;;;2.92;100.00;97920.09;109531;1251;60182;-76
2024/03/24 09:19:02;;;;;;;15.80;13.80;;;;;;;2.99;100.00;97918.69;109460;1251;59869;-79
2024/03/24 09:21:29;;;;;;;20.70;15.90;;;;;;;3.05;100.00;97914.33;109577;1250;59876;-84
2024/03/24 09:23:55;;;;;;;18.40;14.90;;;;;;;3.16;100.00;97912.70;109608;1250;59896;-78
2024/03/24 09:26:21;;;;;;;20.80;18.50;;;;;;;3.39;100.00;97903.70;109538;1251;59806;-79
2024/03/24 09:28:48;;;;;;;17.90;16.00;;;;;;;3.67;100.00;97894.41;109468;1251;59891;-76
2024/03/24 09:31:14;;;;;;;17.30;15.70;;;;;;;4.01;100.00;97891.77;109256;1251;60063;-76
2024/03/24 09:33:40;;;;;;;15.90;14.30;;;;;;;4.35;100.00;97884.10;109445;1251;59807;-76
2024/03/24 09:36:07;;;;;;;12.20;11.20;;;;;;;4.64;100.00;97883.81;109499;1255;59742;-75
2024/03/24 09:38:33;;;;;;;12.20;11.10;;;;;;;4.97;100.00;97880.90;109506;1251;59791;-76
2024/03/24 09:41:00;;;;;;;14.50;13.20;;;;;;;5.35;100.00;97881.32;109480;1251;60203;-78
2024/03/24 09:43:26;;;;;;;9.30;8.50;;;;;;;5.73;100.00;97881.48;109484;1251;59847;-76
2024/03/24 09:45:52;;;;;;;8.90;8.00;;;;;;;5.98;100.00;97881.67;109479;1251;59767;-77
2024/03/24 09:48:20;;;;;;;8.10;7.40;;;;;;;6.14;100.00;97874.41;109491;1251;59886;-78
2024/03/24 09:50:46;;;;;;;9.70;8.90;;;;;;;6.29;100.00;97864.30;109507;1253;59733;-77
2024/03/24 09:53:15;;;;;;;10.10;9.20;;;;;;;6.36;100.00;97861.34;109511;1251;59916;-77
2024/03/24 09:55:42;;;;;;;10.90;8.40;;;;;;;6.43;100.00;97855.76;109443;1251;64888;-79
2024/03/24 09:58:08;;;;;;;7.70;7.00;;;;;;;6.45;100.00;97853.47;109203;1251;60118;-78
2024/03/24 10:00:37;;;;;;;7.80;6.90;;;;;;;6.34;100.00;97852.42;109462;1251;59796;-78
2024/03/24 10:03:04;;;;;;;8.40;7.60;;;;;;;6.32;100.00;97849.44;109338;1251;153238;-77
2024/03/24 10:05:33;;;;;;;9.20;8.30;;;;;;;6.37;100.00;97845.52;109534;1253;59954;-79
2024/03/24 10:08:00;;;;;;;9.80;7.90;;;;;;;6.48;100.00;97842.35;109494;1251;62947;-77
2024/03/24 10:10:26;;;;;;;10.50;8.90;;;;;;;6.64;100.00;97833.46;109489;1251;59799;-78
2024/03/24 10:12:54;;;;;;;8.00;7.30;;;;;;;6.85;100.00;97829.71;109517;1251;59890;-77
2024/03/24 10:15:23;;;;;;;6.70;6.00;;;;;;;6.79;100.00;97825.11;109502;1251;66572;-78
2024/03/24 10:18:03;;;;;;;6.90;6.20;;;;;;;6.68;100.00;97820.10;109521;1251;60012;-79
2024/03/24 10:20:30;;;;;;;8.10;6.40;;;;;;;6.75;100.00;97819.98;109230;1251;64125;-78
2024/03/24 10:22:58;;;;;;;6.30;5.70;;;;;;;6.80;100.00;97817.31;109439;1252;59938;-79
2024/03/24 10:25:29;;;;;;;5.40;5.00;;;;;;;6.82;100.00;97813.83;109477;1251;59701;-78
2024/03/24 10:27:57;;;;;;;7.20;6.50;;;;;;;6.88;100.00;97813.63;109461;1251;65917;-78
2024/03/24 10:30:24;;;;;;;7.30;6.60;;;;;;;6.83;100.00;97815.88;109519;1251;60323;-77
2024/03/24 10:32:51;;;;;;;7.70;7.10;;;;;;;6.76;100.00;97815.31;109503;1251;63743;-78
2024/03/24 10:35:20;;;;;;;7.90;6.90;;;;;;;6.63;100.00;97824.33;109460;1254;59866;-80
2024/03/24 10:37:46;;;;;;;3.20;2.90;;;;;;;6.37;100.00;97861.77;109345;1251;59991;-77
2024/03/24 10:40:13;;;;;;;4.00;3.30;;;;;;;5.66;100.00;97869.48;109512;1255;67351;-80
2024/03/24 10:42:53;;;;;;;3.30;3.00;;;;;;;4.97;100.00;97862.91;109523;1251;60105;-78
2024/03/24 10:45:24;;;;;;;2.10;2.00;;;;;;;4.52;100.00;97852.63;109469;1251;63774;-79
2024/03/24 10:47:54;;;;;;;2.40;2.00;;;;;;;4.28;100.00;97846.91;109479;1251;59862;-80
2024/03/24 10:50:21;;;;;;;2.30;2.10;;;;;;;4.15;100.00;97841.54;109501;1253;59947;-80
2024/03/24 10:52:55;;;;;;;2.30;2.10;;;;;;;4.15;100.00;97835.36;109490;1251;66522;-78
2024/03/24 10:55:22;;;;;;;2.60;2.40;;;;;;;4.26;100.00;97828.71;109505;1251;60292;-79
2024/03/24 10:57:49;;;;;;;2.10;1.80;;;;;;;4.45;100.00;97816.70;109218;1251;62767;-78
2024/03/24 11:00:16;;;;;;;4.20;3.70;;;;;;;4.79;100.00;97825.30;109450;1251;60032;-78
2024/03/24 11:02:42;;;;;;;5.10;4.30;;;;;;;5.20;100.00;97838.78;109489;1254;59720;-80
2024/03/24 11:05:09;;;;;;;4.50;3.50;;;;;;;5.69;100.00;97842.50;109436;1251;59750;-79
2024/03/24 11:07:39;;;;;;;4.50;4.10;;;;;;;6.07;100.00;97845.29;109455;1251;60042;-78
2024/03/24 11:10:06;;;;;;;5.40;4.80;;;;;;;6.41;100.00;97844.21;109463;1251;64110;-79
2024/03/24 11:12:35;;;;;;;4.70;4.20;;;;;;;6.61;100.00;97842.90;109251;1251;60206;-78